createdAt,value
2018-10-11T00:01:56.647Z,12.17
2018-10-11T00:04:25.681Z,12.73
2018-10-11T00:06:54.675Z,12.57
2018-10-11T00:09:23.442Z,11.53
2018-10-11T00:11:52.274Z,11.00
2018-10-11T00:14:21.185Z,11.97
2018-10-11T00:16:49.928Z,11.33
2018-10-11T00:19:18.541Z,11.50
2018-10-11T00:21:47.304Z,11.47
2018-10-11T00:24:16.127Z,11.47
2018-10-11T00:26:45.180Z,12.07
2018-10-11T00:29:14.031Z,12.87
2018-10-11T00:31:43.058Z,11.73
2018-10-11T00:34:12.011Z,13.53
2018-10-11T00:36:41.048Z,13.23
2018-10-11T00:39:10.292Z,12.70
2018-10-11T00:41:39.054Z,12.30
2018-10-11T00:44:07.724Z,13.10
2018-10-11T00:46:36.462Z,12.33
2018-10-11T00:49:05.139Z,12.90
2018-10-11T00:51:34.152Z,12.90
2018-10-11T00:54:03.074Z,12.57
2018-10-11T00:56:31.762Z,11.60
2018-10-11T00:59:00.640Z,11.60
2018-10-11T01:01:29.758Z,12.10
2018-10-11T01:03:58.670Z,11.20
2018-10-11T01:06:27.418Z,11.93
2018-10-11T01:08:56.244Z,12.67
2018-10-11T01:11:25.103Z,12.57
2018-10-11T01:13:54.020Z,11.87
2018-10-11T01:16:22.863Z,12.83
2018-10-11T01:18:51.807Z,13.27
2018-10-11T01:21:20.741Z,11.90
2018-10-11T01:23:49.795Z,11.70
2018-10-11T01:26:18.366Z,11.23
2018-10-11T01:28:47.315Z,11.40
2018-10-11T01:31:23.070Z,11.67
2018-10-11T01:33:52.568Z,11.07
2018-10-11T01:36:21.659Z,12.20
2018-10-11T01:38:52.025Z,11.47
2018-10-11T01:41:20.798Z,13.17
2018-10-11T01:43:49.573Z,11.97
2018-10-11T01:46:18.454Z,11.57
2018-10-11T01:48:47.620Z,12.03
2018-10-11T01:51:16.369Z,11.67
2018-10-11T01:53:45.389Z,11.70
2018-10-11T01:56:14.546Z,12.00
2018-10-11T01:58:43.496Z,11.87
2018-10-11T02:01:12.827Z,12.43
2018-10-11T02:03:41.807Z,12.43
2018-10-11T02:06:10.783Z,11.47
2018-10-11T02:08:39.725Z,11.43
2018-10-11T02:11:08.829Z,10.93
2018-10-11T02:13:37.479Z,11.47
2018-10-11T02:16:06.220Z,12.13
2018-10-11T02:18:35.121Z,12.80
2018-10-11T02:21:03.927Z,11.80
2018-10-11T02:23:32.712Z,12.63
2018-10-11T02:26:01.633Z,11.63
2018-10-11T02:28:30.283Z,12.30
2018-10-11T02:30:59.256Z,12.70
2018-10-11T02:33:28.482Z,12.60
2018-10-11T02:35:57.735Z,13.63
2018-10-11T02:38:26.553Z,12.67
2018-10-11T02:40:55.391Z,12.23
2018-10-11T02:43:24.303Z,14.00
2018-10-11T02:45:52.942Z,12.47
2018-10-11T02:48:21.883Z,12.53
2018-10-11T02:50:50.850Z,12.73
2018-10-11T02:53:19.629Z,12.87
2018-10-11T02:55:48.804Z,13.83
2018-10-11T02:58:28.568Z,12.67
2018-10-11T03:00:57.510Z,13.43
2018-10-11T03:03:29.006Z,14.30
2018-10-11T03:06:00.552Z,13.57
2018-10-11T03:08:29.866Z,14.37
2018-10-11T03:10:59.007Z,14.77
2018-10-11T03:13:27.624Z,13.73
2018-10-11T03:15:56.360Z,14.37
2018-10-11T03:18:25.515Z,13.43
2018-10-11T03:20:54.240Z,14.33
2018-10-11T03:23:22.884Z,14.77
2018-10-11T03:25:51.791Z,13.93
2018-10-11T03:28:20.731Z,13.90
2018-10-11T03:30:49.685Z,16.27
2018-10-11T03:33:18.578Z,14.73
2018-10-11T03:35:47.411Z,15.97
2018-10-11T03:38:16.205Z,16.77
2018-10-11T03:40:45.000Z,15.47
2018-10-11T03:43:13.728Z,22.17
2018-10-11T03:45:42.314Z,17.27
2018-10-11T03:48:11.389Z,16.87
2018-10-11T03:50:40.312Z,34.17
2018-10-11T03:53:09.119Z,18.37
2018-10-11T03:55:38.295Z,24.00
2018-10-11T03:58:06.981Z,17.20
2018-10-11T04:00:36.322Z,22.90
2018-10-11T04:03:05.182Z,25.83
2018-10-11T04:05:33.964Z,19.67
2018-10-11T04:08:03.601Z,20.20
2018-10-11T04:10:32.306Z,21.47
2018-10-11T04:13:01.384Z,21.23
2018-10-11T04:15:30.170Z,22.43
2018-10-11T04:17:59.039Z,21.93
2018-10-11T04:20:28.103Z,21.60
2018-10-11T04:22:57.199Z,23.03
2018-10-11T04:25:26.700Z,22.17
2018-10-11T04:27:55.503Z,23.77
2018-10-11T04:30:25.106Z,22.53
2018-10-11T04:32:54.231Z,21.97
2018-10-11T04:35:23.155Z,23.10
2018-10-11T04:37:51.846Z,22.37
2018-10-11T04:40:20.675Z,25.37
2018-10-11T04:42:49.592Z,25.93
2018-10-11T04:45:18.250Z,24.27
2018-10-11T04:47:47.098Z,26.33
2018-10-11T04:50:16.164Z,25.87
2018-10-11T04:52:44.980Z,26.03
2018-10-11T04:55:13.933Z,26.07
2018-10-11T04:57:42.978Z,28.77
2018-10-11T05:00:11.728Z,25.00
2018-10-11T05:02:40.255Z,25.00
2018-10-11T05:05:09.595Z,24.03
2018-10-11T05:07:38.611Z,23.33
2018-10-11T05:10:07.429Z,21.67
2018-10-11T05:12:36.229Z,24.07
2018-10-11T05:15:05.145Z,25.37
2018-10-11T05:17:34.699Z,24.13
2018-10-11T05:20:03.533Z,23.43
2018-10-11T05:22:32.249Z,24.03
2018-10-11T05:25:01.184Z,23.90
2018-10-11T05:27:30.046Z,23.57
2018-10-11T05:29:58.975Z,21.87
2018-10-11T05:32:28.261Z,25.13
2018-10-11T05:34:57.075Z,27.20
2018-10-11T05:37:25.715Z,25.80
2018-10-11T05:39:54.623Z,26.13
2018-10-11T05:42:23.466Z,23.77
2018-10-11T05:44:52.785Z,24.33
2018-10-11T05:47:21.919Z,23.63
2018-10-11T05:49:50.993Z,23.37
2018-10-11T05:52:19.719Z,22.43
2018-10-11T05:54:48.810Z,24.90
2018-10-11T05:57:17.771Z,24.37
2018-10-11T05:59:46.723Z,23.23
2018-10-11T06:02:15.692Z,22.03
2018-10-11T06:04:44.963Z,23.50
2018-10-11T06:07:13.961Z,22.07
2018-10-11T06:09:42.740Z,21.53
2018-10-11T06:12:11.532Z,23.10
2018-10-11T06:14:40.487Z,20.50
2018-10-11T06:17:09.730Z,20.83
2018-10-11T06:19:38.692Z,21.70
2018-10-11T06:22:07.939Z,22.80
2018-10-11T06:24:37.045Z,22.20
2018-10-11T06:27:06.147Z,21.93
2018-10-11T06:29:35.539Z,21.73
2018-10-11T06:32:04.234Z,24.20
2018-10-11T06:34:33.387Z,23.90
2018-10-11T06:37:03.284Z,22.40
2018-10-11T06:39:32.062Z,24.60
2018-10-11T06:42:00.686Z,26.40
2018-10-11T06:44:30.011Z,30.47
2018-10-11T06:46:59.083Z,26.67
2018-10-11T06:49:27.895Z,27.33
2018-10-11T06:51:57.092Z,28.20
2018-10-11T06:54:25.950Z,28.80
2018-10-11T06:56:55.059Z,31.07
2018-10-11T06:59:23.883Z,27.80
2018-10-11T07:01:52.978Z,28.03
2018-10-11T07:04:22.058Z,27.07
2018-10-11T07:06:51.141Z,27.57
2018-10-11T07:09:19.852Z,26.90
2018-10-11T07:11:48.538Z,28.73
2018-10-11T07:14:17.248Z,29.17
2018-10-11T07:16:46.011Z,28.13
2018-10-11T07:19:14.629Z,26.30
2018-10-11T07:21:43.532Z,27.73
2018-10-11T07:24:12.198Z,27.23
2018-10-11T07:26:40.875Z,24.63
2018-10-11T07:29:09.858Z,23.63
2018-10-11T07:31:38.721Z,23.50
2018-10-11T07:34:07.639Z,20.43
2018-10-11T07:36:36.326Z,19.73
2018-10-11T07:39:08.157Z,19.73
2018-10-11T07:41:37.157Z,19.70
2018-10-11T07:44:06.442Z,19.70
2018-10-11T07:46:35.554Z,21.73
2018-10-11T07:49:05.952Z,21.70
2018-10-11T07:51:34.823Z,22.03
2018-10-11T07:54:03.865Z,20.03
2018-10-11T07:56:34.061Z,20.47
2018-10-11T07:59:03.005Z,20.27
2018-10-11T08:01:32.219Z,18.57
2018-10-11T08:04:01.507Z,19.07
2018-10-11T08:06:30.280Z,18.87
2018-10-11T08:08:59.129Z,20.00
2018-10-11T08:11:28.575Z,21.03
2018-10-11T08:13:57.253Z,18.20
2018-10-11T08:16:26.362Z,19.53
2018-10-11T08:18:55.971Z,19.53
2018-10-11T08:21:24.955Z,19.63
2018-10-11T08:23:53.883Z,18.20
2018-10-11T08:26:23.138Z,19.57
2018-10-11T08:28:51.840Z,17.70
2018-10-11T08:31:20.775Z,19.17
2018-10-11T08:33:49.816Z,16.73
2018-10-11T08:36:18.450Z,19.47
2018-10-11T08:38:47.263Z,20.37
2018-10-11T08:41:16.376Z,19.83
2018-10-11T08:43:45.312Z,19.20
2018-10-11T08:46:14.802Z,18.87
2018-10-11T08:48:44.109Z,19.00
2018-10-11T08:51:12.859Z,23.73
2018-10-11T08:53:41.813Z,19.37
2018-10-11T08:56:10.883Z,18.97
2018-10-11T08:58:39.866Z,19.27
2018-10-11T09:01:08.859Z,18.97
2018-10-11T09:03:38.081Z,19.63
2018-10-11T09:06:06.727Z,20.13
2018-10-11T09:08:35.321Z,21.13
2018-10-11T09:11:04.266Z,19.43
2018-10-11T09:13:33.098Z,17.80
2018-10-11T09:16:02.010Z,18.67
2018-10-11T09:18:31.318Z,17.97
2018-10-11T09:21:00.070Z,19.80
2018-10-11T09:23:28.931Z,19.27
2018-10-11T09:25:58.208Z,17.50
2018-10-11T09:28:27.165Z,17.53
2018-10-11T09:30:56.157Z,14.97
2018-10-11T09:33:25.573Z,14.10
2018-10-11T09:35:54.232Z,12.63
2018-10-11T09:38:23.004Z,12.30
2018-10-11T09:40:51.784Z,12.77
2018-10-11T09:43:20.725Z,11.87
2018-10-11T09:45:49.767Z,12.10
2018-10-11T09:48:18.938Z,14.53
2018-10-11T09:50:47.779Z,14.33
2018-10-11T09:53:16.855Z,11.47
2018-10-11T09:55:46.040Z,11.73
2018-10-11T09:58:14.970Z,12.63
2018-10-11T10:00:49.354Z,11.33
2018-10-11T10:03:18.519Z,12.13
2018-10-11T10:05:47.229Z,12.10
2018-10-11T10:08:16.124Z,10.50
2018-10-11T10:10:44.858Z,11.20
2018-10-11T10:13:13.741Z,11.68
2018-10-11T10:15:42.801Z,11.25
2018-10-11T10:18:11.854Z,11.57
2018-10-11T10:20:40.887Z,12.45
2018-10-11T10:23:09.654Z,11.60
2018-10-11T10:25:38.486Z,11.75
2018-10-11T10:28:07.363Z,11.93
2018-10-11T10:30:41.571Z,12.05
2018-10-11T10:33:10.758Z,12.50
2018-10-11T10:35:39.495Z,15.03
2018-10-11T10:38:08.356Z,12.33
2018-10-11T10:40:37.331Z,13.55
2018-10-11T10:43:06.036Z,11.25
2018-10-11T10:45:34.740Z,13.30
2018-10-11T10:48:04.709Z,12.35
2018-10-11T10:50:33.591Z,11.30
2018-10-11T10:53:02.370Z,11.57
2018-10-11T10:55:31.610Z,12.68
2018-10-11T10:58:00.543Z,11.70
2018-10-11T11:00:29.483Z,11.12
2018-10-11T11:02:58.502Z,11.53
2018-10-11T11:05:27.307Z,11.40
2018-10-11T11:07:56.050Z,11.03
2018-10-11T11:10:25.475Z,11.23
2018-10-11T11:12:54.653Z,10.87
2018-10-11T11:15:23.813Z,13.10
2018-10-11T11:17:52.488Z,10.83
2018-10-11T11:20:21.489Z,9.57
2018-10-11T11:22:50.427Z,8.87
2018-10-11T11:25:19.554Z,9.30
2018-10-11T11:27:48.336Z,10.23
2018-10-11T11:30:17.484Z,10.20
2018-10-11T11:32:46.218Z,11.07
2018-10-11T11:35:15.054Z,9.10
2018-10-11T11:37:43.728Z,11.37
2018-10-11T11:40:12.595Z,11.63
2018-10-11T11:42:41.503Z,12.90
2018-10-11T11:45:10.347Z,11.50
2018-10-11T11:47:39.362Z,10.60
2018-10-11T11:50:08.471Z,11.70
2018-10-11T11:52:37.591Z,10.50
2018-10-11T11:55:06.663Z,10.33
2018-10-11T11:57:35.603Z,10.97
2018-10-11T12:00:04.827Z,10.77
2018-10-11T12:02:33.549Z,10.53
2018-10-11T12:05:02.263Z,10.43
2018-10-11T12:07:31.940Z,10.97
2018-10-11T12:10:00.677Z,11.20
2018-10-11T12:13:07.286Z,12.03
2018-10-11T12:15:36.676Z,9.80
2018-10-11T12:18:06.486Z,8.97
2018-10-11T12:20:36.748Z,9.67
2018-10-11T12:23:06.730Z,9.30
2018-10-11T12:25:35.732Z,8.77
2018-10-11T12:28:04.726Z,10.00
2018-10-11T12:30:34.020Z,10.40
2018-10-11T12:33:02.791Z,8.80
2018-10-11T12:35:31.926Z,8.50
2018-10-11T12:38:01.313Z,9.80
2018-10-11T12:40:30.363Z,10.00
2018-10-11T12:42:59.359Z,9.57
2018-10-11T12:45:28.241Z,9.30
2018-10-11T12:47:56.978Z,9.63
2018-10-11T12:50:25.779Z,8.50
2018-10-11T12:52:54.741Z,8.40
2018-10-11T12:55:23.908Z,9.03
2018-10-11T12:57:53.159Z,12.97
2018-10-11T13:00:22.052Z,12.03
2018-10-11T13:02:50.987Z,13.73
2018-10-11T13:05:19.659Z,14.70
2018-10-11T13:07:48.760Z,11.93
2018-10-11T13:10:17.891Z,10.47
2018-10-11T13:12:46.767Z,11.18
2018-10-11T13:15:16.067Z,10.05
2018-10-11T13:17:44.920Z,10.45
2018-10-11T13:20:13.804Z,10.20
2018-10-11T13:22:42.702Z,10.75
2018-10-11T13:25:11.710Z,9.58
2018-10-11T13:27:40.730Z,10.20
2018-10-11T13:30:10.143Z,8.65
2018-10-11T13:32:38.801Z,10.18
2018-10-11T13:35:08.323Z,9.80
2018-10-11T13:37:37.000Z,9.30
2018-10-11T13:40:05.685Z,9.83
2018-10-11T13:42:34.436Z,9.57
2018-10-11T13:45:03.495Z,9.70
2018-10-11T13:47:35.294Z,9.83
2018-10-11T13:50:01.358Z,9.30
2018-10-11T13:52:30.160Z,10.43
2018-10-11T13:54:59.243Z,10.32
2018-10-11T13:57:31.125Z,8.93
2018-10-11T13:59:56.891Z,10.23
2018-10-11T14:02:25.553Z,9.38
2018-10-11T14:04:54.267Z,9.18
2018-10-11T14:07:23.193Z,9.00
2018-10-11T14:09:52.127Z,8.47
2018-10-11T14:12:20.981Z,8.83
2018-10-11T14:14:49.669Z,9.07
2018-10-11T14:17:18.607Z,8.53
2018-10-11T14:19:47.506Z,8.60
2018-10-11T14:22:16.578Z,8.67
2018-10-11T14:24:45.594Z,9.10
2018-10-11T14:27:14.500Z,8.07
2018-10-11T14:29:43.257Z,9.27
2018-10-11T14:32:12.061Z,9.77
2018-10-11T14:34:40.716Z,8.43
2018-10-11T14:37:09.846Z,10.20
2018-10-11T14:39:38.747Z,8.47
2018-10-11T14:42:07.879Z,8.50
2018-10-11T14:44:36.885Z,9.40
2018-10-11T14:47:06.016Z,8.87
2018-10-11T14:49:34.901Z,8.67
2018-10-11T14:52:03.937Z,8.83
2018-10-11T14:54:35.197Z,8.20
2018-10-11T14:57:05.471Z,9.03
2018-10-11T14:59:34.303Z,8.50
2018-10-11T15:02:02.961Z,8.80
2018-10-11T15:04:32.063Z,8.70
2018-10-11T15:07:00.882Z,8.67
2018-10-11T15:09:29.944Z,9.13
2018-10-11T15:11:59.181Z,9.30
2018-10-11T15:14:28.243Z,9.73
2018-10-11T15:16:57.910Z,11.33
2018-10-11T15:19:26.907Z,9.87
2018-10-11T15:21:56.040Z,9.80
2018-10-11T15:24:24.807Z,10.27
2018-10-11T15:26:53.863Z,9.40
2018-10-11T15:29:22.709Z,10.37
2018-10-11T15:31:51.479Z,11.90
2018-10-11T15:34:20.294Z,10.37
2018-10-11T15:36:49.347Z,12.17
2018-10-11T15:39:18.287Z,9.63
2018-10-11T15:41:47.319Z,10.27
2018-10-11T15:44:16.167Z,10.70
2018-10-11T15:46:45.038Z,10.70
2018-10-11T15:49:13.928Z,13.27
2018-10-11T15:51:43.076Z,11.30
2018-10-11T15:54:12.085Z,11.37
2018-10-11T15:56:40.826Z,12.47
2018-10-11T15:59:09.628Z,12.53
2018-10-11T16:01:38.357Z,13.77
2018-10-11T16:04:07.199Z,13.20
2018-10-11T16:06:36.078Z,13.40
2018-10-11T16:09:06.545Z,14.07
2018-10-11T16:11:35.416Z,12.43
2018-10-11T16:14:04.281Z,13.07
2018-10-11T16:16:33.681Z,12.67
2018-10-11T16:19:02.600Z,13.93
2018-10-11T16:21:31.751Z,12.67
2018-10-11T16:24:00.592Z,13.53
2018-10-11T16:26:29.598Z,13.50
2018-10-11T16:28:58.515Z,14.73
2018-10-11T16:31:27.304Z,16.07
2018-10-11T16:33:56.309Z,15.63
2018-10-11T16:36:25.455Z,14.00
2018-10-11T16:38:54.040Z,15.63
2018-10-11T16:41:23.412Z,16.03
2018-10-11T16:43:52.354Z,19.20
2018-10-11T16:46:21.170Z,17.40
2018-10-11T16:48:49.911Z,16.20
2018-10-11T16:51:18.724Z,15.53
2018-10-11T16:53:47.800Z,14.27
2018-10-11T16:56:16.598Z,15.03
2018-10-11T16:58:45.374Z,13.70
2018-10-11T17:01:14.102Z,15.03
2018-10-11T17:03:43.094Z,16.17
2018-10-11T17:06:12.067Z,16.87
2018-10-11T17:08:41.296Z,16.33
2018-10-11T17:11:10.344Z,16.63
2018-10-11T17:13:39.115Z,14.67
2018-10-11T17:16:08.036Z,17.37
2018-10-11T17:18:36.777Z,15.47
2018-10-11T17:21:05.866Z,14.97
2018-10-11T17:23:34.752Z,14.40
2018-10-11T17:26:03.462Z,15.20
2018-10-11T17:28:32.150Z,16.30
2018-10-11T17:31:01.174Z,14.27
2018-10-11T17:33:30.097Z,15.17
2018-10-11T17:35:59.167Z,16.17
2018-10-11T17:38:27.870Z,16.93
2018-10-11T17:40:56.842Z,16.77
2018-10-11T17:43:25.909Z,17.07
2018-10-11T17:45:54.711Z,17.03
2018-10-11T17:48:24.019Z,18.10
2018-10-11T17:50:52.892Z,18.03
2018-10-11T17:53:21.748Z,17.87
2018-10-11T17:55:50.978Z,17.77
2018-10-11T17:58:19.906Z,17.00
2018-10-11T18:00:48.803Z,20.10
2018-10-11T18:03:18.354Z,18.10
2018-10-11T18:05:47.386Z,28.87
2018-10-11T18:08:16.896Z,31.50
2018-10-11T18:10:46.060Z,32.90
2018-10-11T18:13:15.148Z,31.87
2018-10-11T18:15:44.194Z,30.53
2018-10-11T18:18:13.722Z,34.20
2018-10-11T18:20:42.583Z,31.03
2018-10-11T18:23:11.421Z,27.30
2018-10-11T18:25:40.099Z,24.83
2018-10-11T18:28:08.831Z,22.80
2018-10-11T18:30:37.492Z,18.83
2018-10-11T18:33:06.318Z,21.27
2018-10-11T18:35:35.400Z,20.77
2018-10-11T18:38:04.146Z,25.10
2018-10-11T18:40:33.039Z,22.53
2018-10-11T18:43:01.903Z,23.00
2018-10-11T18:45:30.819Z,29.83
2018-10-11T18:47:59.994Z,30.03
2018-10-11T18:50:28.835Z,33.70
2018-10-11T18:52:57.827Z,28.20
2018-10-11T18:55:26.498Z,25.33
2018-10-11T18:57:55.237Z,20.27
2018-10-11T19:00:24.006Z,22.40
2018-10-11T19:02:53.132Z,18.47
2018-10-11T19:05:22.176Z,22.43
2018-10-11T19:07:50.990Z,23.93
2018-10-11T19:10:19.840Z,22.30
2018-10-11T19:12:48.579Z,23.73
2018-10-11T19:15:17.459Z,21.50
2018-10-11T19:17:46.378Z,22.53
2018-10-11T19:20:15.279Z,23.67
2018-10-11T19:22:44.367Z,21.13
2018-10-11T19:25:13.102Z,20.93
2018-10-11T19:27:41.903Z,19.43
2018-10-11T19:30:10.633Z,22.23
2018-10-11T19:32:39.551Z,22.30
2018-10-11T19:35:08.651Z,23.47
2018-10-11T19:37:37.450Z,20.80
2018-10-11T19:40:06.249Z,22.83
2018-10-11T19:42:35.111Z,20.87
2018-10-11T19:45:03.958Z,22.93
2018-10-11T19:47:33.025Z,23.03
2018-10-11T19:50:01.940Z,23.87
2018-10-11T19:52:30.813Z,23.73
2018-10-11T19:54:59.572Z,22.83
2018-10-11T19:57:28.327Z,22.13
2018-10-11T19:59:56.961Z,23.93
2018-10-11T20:02:25.665Z,22.77
2018-10-11T20:04:54.635Z,22.70
2018-10-11T20:07:23.763Z,20.17
2018-10-11T20:09:52.799Z,21.40
2018-10-11T20:12:21.597Z,19.47
2018-10-11T20:14:50.942Z,18.60
2018-10-11T20:17:19.878Z,17.67
2018-10-11T20:19:48.684Z,17.10
2018-10-11T20:22:17.776Z,17.77
2018-10-11T20:24:46.627Z,16.00
2018-10-11T20:27:15.421Z,16.60
2018-10-11T20:29:44.154Z,17.10
2018-10-11T20:32:13.089Z,17.80
2018-10-11T20:34:41.918Z,18.00
2018-10-11T20:37:10.945Z,15.97
2018-10-11T20:39:39.548Z,16.93
2018-10-11T20:42:08.636Z,15.37
2018-10-11T20:44:37.532Z,16.37
2018-10-11T20:47:06.535Z,16.27
2018-10-11T20:49:35.167Z,15.90
2018-10-11T20:52:04.030Z,16.97
2018-10-11T20:54:32.985Z,16.70
2018-10-11T20:57:01.582Z,16.40
2018-10-11T20:59:30.283Z,17.57
2018-10-11T21:01:59.355Z,16.87
2018-10-11T21:04:28.144Z,15.87
2018-10-11T21:06:57.240Z,16.53
2018-10-11T21:09:26.265Z,15.00
2018-10-11T21:11:55.203Z,16.80
2018-10-11T21:14:24.274Z,16.40
2018-10-11T21:16:53.069Z,14.70
2018-10-11T21:19:21.819Z,14.60
2018-10-11T21:21:50.526Z,14.27
2018-10-11T21:24:19.659Z,14.07
2018-10-11T21:26:48.386Z,14.77
2018-10-11T21:29:17.068Z,17.03
2018-10-11T21:31:46.016Z,18.63
2018-10-11T21:34:15.116Z,17.27
2018-10-11T21:36:43.867Z,18.20
2018-10-11T21:39:13.551Z,18.80
2018-10-11T21:41:42.607Z,17.57
2018-10-11T21:44:11.515Z,15.63
2018-10-11T21:46:40.505Z,16.20
2018-10-11T21:49:09.532Z,16.47
2018-10-11T21:51:38.525Z,17.23
2018-10-11T21:54:07.258Z,17.93
2018-10-11T21:56:35.983Z,18.67
2018-10-11T21:59:04.939Z,17.77
2018-10-11T22:01:33.786Z,18.13
2018-10-11T22:04:02.586Z,17.67
2018-10-11T22:06:31.463Z,17.43
2018-10-11T22:09:00.203Z,17.43
2018-10-11T22:11:28.924Z,16.83
2018-10-11T22:13:57.866Z,18.17
2018-10-11T22:16:26.776Z,16.57
2018-10-11T22:18:55.564Z,17.47
2018-10-11T22:21:24.266Z,15.83
2018-10-11T22:23:53.543Z,15.40
2018-10-11T22:26:22.232Z,15.13
2018-10-11T22:28:50.878Z,15.03
2018-10-11T22:31:19.855Z,16.60
2018-10-11T22:33:48.806Z,17.43
2018-10-11T22:36:17.427Z,13.67
2018-10-11T22:38:46.306Z,14.50
2018-10-11T22:41:15.494Z,13.67
2018-10-11T22:43:44.669Z,13.60
2018-10-11T22:46:13.959Z,15.20
2018-10-11T22:48:43.328Z,15.07
2018-10-11T22:51:12.618Z,13.53
2018-10-11T22:53:41.780Z,14.50
2018-10-11T22:56:10.550Z,14.57
2018-10-11T22:58:39.655Z,14.90
2018-10-11T23:01:08.595Z,15.60
2018-10-11T23:03:37.582Z,14.53
2018-10-11T23:06:06.644Z,14.87
2018-10-11T23:08:35.889Z,15.27
2018-10-11T23:11:04.724Z,14.43
2018-10-11T23:13:33.527Z,13.97
2018-10-11T23:16:02.568Z,15.37
2018-10-11T23:18:31.571Z,14.80
2018-10-11T23:21:00.221Z,15.97
2018-10-11T23:23:29.028Z,16.83
2018-10-11T23:25:57.750Z,17.90
2018-10-11T23:28:26.570Z,18.70
2018-10-11T23:30:55.614Z,19.50
2018-10-11T23:33:24.566Z,18.30
2018-10-11T23:35:53.505Z,22.63
2018-10-11T23:38:22.531Z,20.43
2018-10-11T23:40:51.699Z,19.53
2018-10-11T23:43:20.544Z,22.77
2018-10-11T23:45:49.486Z,21.73
2018-10-11T23:48:18.289Z,22.43
2018-10-11T23:50:47.528Z,20.90
2018-10-11T23:53:16.282Z,20.43
2018-10-11T23:55:45.009Z,19.73
2018-10-11T23:58:13.842Z,20.77
